createdAt,value
2017-01-19T00:00:22.889Z,55.66
2017-01-19T00:01:22.895Z,55.38
2017-01-19T00:02:23.304Z,55.76
2017-01-19T00:03:23.317Z,55.66
2017-01-19T00:04:22.921Z,55.47
2017-01-19T00:05:23.430Z,55.38
2017-01-19T00:06:23.336Z,55.47
2017-01-19T00:07:23.347Z,55.57
2017-01-19T00:08:23.356Z,55.38
2017-01-19T00:09:22.965Z,56.04
2017-01-19T00:10:23.373Z,55.38
2017-01-19T00:11:22.987Z,55.57
2017-01-19T00:12:23.395Z,55.1
2017-01-19T00:13:23.402Z,55.19
2017-01-19T00:14:23.409Z,55.19
2017-01-19T00:15:23.020Z,55.29
2017-01-19T00:16:23.028Z,55.19
2017-01-19T00:17:23.038Z,55.38
2017-01-19T00:18:23.443Z,55.47
2017-01-19T00:19:23.453Z,55.47
2017-01-19T00:20:23.163Z,55.76
2017-01-19T00:21:23.070Z,56.04
2017-01-19T00:22:23.080Z,56.89
2017-01-19T00:23:23.487Z,56.42
2017-01-19T00:24:23.496Z,56.23
2017-01-19T00:25:23.106Z,56.7
2017-01-19T00:26:23.511Z,56.8
2017-01-19T00:27:23.123Z,57.46
2017-01-19T00:28:23.134Z,57.55
2017-01-19T00:29:23.539Z,56.89
2017-01-19T00:30:23.149Z,56.32
2017-01-19T00:31:23.561Z,55.85
2017-01-19T00:32:23.568Z,56.04
2017-01-19T00:33:23.573Z,56.61
2017-01-19T00:34:23.630Z,56.89
2017-01-19T00:35:23.192Z,56.99
2017-01-19T00:36:23.199Z,57.08
2017-01-19T00:37:23.211Z,56.42
2017-01-19T00:38:23.222Z,55.1
2017-01-19T00:39:23.276Z,55.57
2017-01-19T00:40:23.235Z,55.38
2017-01-19T00:41:23.245Z,56.23
2017-01-19T00:42:23.650Z,56.51
2017-01-19T00:43:23.262Z,56.61
2017-01-19T00:44:23.324Z,55.66
2017-01-19T00:45:23.279Z,55.47
2017-01-19T00:46:23.289Z,55.57
2017-01-19T00:47:23.696Z,56.13
2017-01-19T00:48:23.305Z,55.94
2017-01-19T00:49:23.765Z,56.8
2017-01-19T00:50:23.329Z,56.51
2017-01-19T00:51:23.330Z,55.94
2017-01-19T00:52:23.739Z,55.47
2017-01-19T00:53:23.347Z,55.19
2017-01-19T00:54:23.903Z,55.66
2017-01-19T00:55:23.366Z,55.94
2017-01-19T00:56:23.374Z,56.8
2017-01-19T00:57:23.384Z,55.85
2017-01-19T00:58:23.392Z,55.85
2017-01-19T00:59:23.801Z,56.32
2017-01-19T01:00:23.408Z,55.94
2017-01-19T01:01:23.419Z,56.42
2017-01-19T01:02:23.827Z,56.42
2017-01-19T01:03:23.835Z,56.32
2017-01-19T01:04:23.841Z,56.99
2017-01-19T01:05:23.452Z,56.42
2017-01-19T01:06:23.865Z,56.04
2017-01-19T01:07:23.471Z,56.04
2017-01-19T01:08:23.479Z,56.61
2017-01-19T01:09:23.489Z,56.8
2017-01-19T01:10:23.898Z,56.7
2017-01-19T01:11:23.906Z,56.13
2017-01-19T01:12:23.520Z,56.23
2017-01-19T01:13:23.923Z,55.19
2017-01-19T01:14:23.531Z,56.32
2017-01-19T01:15:23.541Z,56.04
2017-01-19T01:16:23.601Z,56.32
2017-01-19T01:17:23.957Z,55.38
2017-01-19T01:18:23.566Z,55.19
2017-01-19T01:19:23.975Z,55.19
2017-01-19T01:20:23.989Z,55.19
2017-01-19T01:21:23.643Z,56.32
2017-01-19T01:22:23.604Z,56.13
2017-01-19T01:23:24.007Z,55.94
2017-01-19T01:24:24.017Z,55.85
2017-01-19T01:25:23.627Z,56.23
2017-01-19T01:26:24.087Z,56.51
2017-01-19T01:27:23.646Z,56.8
2017-01-19T01:28:23.654Z,56.13
2017-01-19T01:29:23.662Z,55.85
2017-01-19T01:30:24.069Z,56.13
2017-01-19T01:31:23.681Z,55.85
2017-01-19T01:32:23.688Z,55.47
2017-01-19T01:33:23.699Z,55.57
2017-01-19T01:34:23.705Z,54.91
2017-01-19T01:35:24.114Z,55.19
2017-01-19T01:36:24.121Z,55.47
2017-01-19T01:37:24.131Z,55.66
2017-01-19T01:38:24.138Z,55.29
2017-01-19T01:39:24.147Z,55.1
2017-01-19T01:40:24.155Z,55.47
2017-01-19T01:41:24.167Z,55.19
2017-01-19T01:42:23.875Z,55.57
2017-01-19T01:43:23.786Z,55.94
2017-01-19T01:44:23.794Z,55.76
2017-01-19T01:45:23.803Z,55.94
2017-01-19T01:46:24.212Z,55.38
2017-01-19T01:47:24.223Z,55.29
2017-01-19T01:48:23.832Z,55.29
2017-01-19T01:49:23.839Z,55.29
2017-01-19T01:50:23.848Z,55.19
2017-01-19T01:51:24.256Z,55
2017-01-19T01:52:23.868Z,55.1
2017-01-19T01:53:24.277Z,55.76
2017-01-19T01:54:24.284Z,56.61
2017-01-19T01:55:24.293Z,56.23
2017-01-19T01:56:24.303Z,56.13
2017-01-19T01:57:24.358Z,56.32
2017-01-19T01:58:24.321Z,56.61
2017-01-19T01:59:24.330Z,56.61
2017-01-19T02:00:23.939Z,56.51
2017-01-19T02:01:24.350Z,56.04
2017-01-19T02:02:23.958Z,56.7
2017-01-19T02:03:24.367Z,56.7
2017-01-19T02:04:24.375Z,56.13
2017-01-19T02:05:24.384Z,55.38
2017-01-19T02:06:23.993Z,55.29
2017-01-19T02:07:24.002Z,55.29
2017-01-19T02:08:24.008Z,55.19
2017-01-19T02:09:24.121Z,55.38
2017-01-19T02:10:24.028Z,55.47
2017-01-19T02:11:24.039Z,55.76
2017-01-19T02:12:24.446Z,56.32
2017-01-19T02:13:24.157Z,56.04
2017-01-19T02:14:24.462Z,56.51
2017-01-19T02:15:24.074Z,56.8
2017-01-19T02:16:24.086Z,56.89
2017-01-19T02:17:24.091Z,56.8
2017-01-19T02:18:24.099Z,57.27
2017-01-19T02:19:24.111Z,57.08
2017-01-19T02:20:24.516Z,57.46
2017-01-19T02:21:24.527Z,56.89
2017-01-19T02:22:24.535Z,56.04
2017-01-19T02:23:24.546Z,56.23
2017-01-19T02:24:24.157Z,55.76
2017-01-19T02:25:24.557Z,56.61
2017-01-19T02:26:24.171Z,56.8
2017-01-19T02:27:24.178Z,56.7
2017-01-19T02:28:24.589Z,56.89
2017-01-19T02:29:24.253Z,56.99
2017-01-19T02:30:24.208Z,57.18
2017-01-19T02:31:24.618Z,56.8
2017-01-19T02:32:24.223Z,56.7
2017-01-19T02:33:24.632Z,56.51
2017-01-19T02:34:24.639Z,56.61
2017-01-19T02:35:24.650Z,56.61
2017-01-19T02:36:24.260Z,56.04
2017-01-19T02:37:24.665Z,56.04
2017-01-19T02:38:24.280Z,56.7
2017-01-19T02:39:24.688Z,56.32
2017-01-19T02:40:24.297Z,56.32
2017-01-19T02:41:24.307Z,56.7
2017-01-19T02:42:24.711Z,56.61
2017-01-19T02:43:24.725Z,56.77
2017-01-19T02:44:24.781Z,56.89
2017-01-19T02:45:24.343Z,56.99
2017-01-19T02:46:24.350Z,56.99
2017-01-19T02:47:24.758Z,56.51
2017-01-19T02:48:24.766Z,56.51
2017-01-19T02:49:24.775Z,56.89
2017-01-19T02:50:24.782Z,56.7
2017-01-19T02:51:24.392Z,56.96
2017-01-19T02:52:24.818Z,56.77
2017-01-19T02:53:24.810Z,57.15
2017-01-19T02:54:24.821Z,57.53
2017-01-19T02:55:24.427Z,57.62
2017-01-19T02:56:24.832Z,57.15
2017-01-19T02:57:24.447Z,57.9
2017-01-19T02:58:24.852Z,57.53
2017-01-19T02:59:24.512Z,57.81
2017-01-19T03:00:24.870Z,57.62
2017-01-19T03:01:24.479Z,57.71
2017-01-19T03:02:24.492Z,57.43
2017-01-19T03:03:24.522Z,57.71
2017-01-19T03:04:24.903Z,57.05
2017-01-19T03:05:24.512Z,57.34
2017-01-19T03:06:24.919Z,57.53
2017-01-19T03:07:24.531Z,57.62
2017-01-19T03:08:24.988Z,57.34
2017-01-19T03:09:24.949Z,57.81
2017-01-19T03:10:24.954Z,57.62
2017-01-19T03:11:24.962Z,57.9
2017-01-19T03:12:24.571Z,58.09
2017-01-19T03:13:24.980Z,58.47
2017-01-19T03:14:24.589Z,58.94
2017-01-19T03:15:24.600Z,58.94
2017-01-19T03:16:25.014Z,59.03
2017-01-19T03:17:25.015Z,58.94
2017-01-19T03:18:24.623Z,59.03
2017-01-19T03:19:24.630Z,58.47
2017-01-19T03:20:24.638Z,58
2017-01-19T03:21:25.050Z,57.81
2017-01-19T03:22:25.058Z,57.9
2017-01-19T03:23:25.081Z,58.94
2017-01-19T03:24:25.073Z,58.75
2017-01-19T03:25:25.082Z,58.47
2017-01-19T03:26:25.090Z,58.56
2017-01-19T03:27:25.100Z,58.75
2017-01-19T03:28:25.106Z,58.56
2017-01-19T03:29:25.113Z,58.65
2017-01-19T03:30:25.144Z,58.37
2017-01-19T03:31:24.732Z,59.03
2017-01-19T03:32:25.140Z,58.75
2017-01-19T03:33:24.750Z,59.03
2017-01-19T03:34:25.157Z,58.65
2017-01-19T03:35:25.163Z,58.65
2017-01-19T03:36:24.775Z,58.65
2017-01-19T03:37:24.785Z,58.37
2017-01-19T03:38:25.189Z,58.56
2017-01-19T03:39:24.798Z,58.37
2017-01-19T03:40:25.204Z,58.5
2017-01-19T03:41:24.815Z,58.97
2017-01-19T03:42:25.219Z,58.56
2017-01-19T03:43:24.852Z,58.56
2017-01-19T03:44:25.239Z,58.37
2017-01-19T03:45:25.245Z,58.37
2017-01-19T03:46:24.858Z,58.28
2017-01-19T03:47:24.915Z,58.47
2017-01-19T03:48:24.876Z,58.47
2017-01-19T03:49:24.882Z,58.65
2017-01-19T03:50:25.288Z,58.47
2017-01-19T03:51:24.900Z,58.84
2017-01-19T03:52:24.905Z,58.65
2017-01-19T03:53:25.312Z,58.37
2017-01-19T03:54:25.323Z,58.28
2017-01-19T03:55:25.331Z,58.31
2017-01-19T03:56:24.939Z,57.65
2017-01-19T03:57:24.945Z,57.93
2017-01-19T03:58:25.355Z,57.71
2017-01-19T03:59:25.364Z,57.9
2017-01-19T04:00:25.373Z,58.56
2017-01-19T04:01:24.981Z,58.56
2017-01-19T04:02:25.387Z,59.13
2017-01-19T04:03:25.448Z,58.94
2017-01-19T04:04:25.006Z,58.75
2017-01-19T04:05:25.016Z,58.75
2017-01-19T04:06:25.023Z,58.75
2017-01-19T04:07:25.428Z,59.03
2017-01-19T04:08:25.036Z,58.56
2017-01-19T04:09:25.445Z,58.65
2017-01-19T04:10:25.055Z,58.28
2017-01-19T04:11:25.464Z,58.47
2017-01-19T04:12:25.473Z,58.47
2017-01-19T04:13:25.080Z,58.94
2017-01-19T04:14:25.491Z,59.22
2017-01-19T04:15:25.095Z,58.94
2017-01-19T04:16:25.554Z,59.32
2017-01-19T04:17:25.114Z,60.08
2017-01-19T04:18:25.521Z,59.6
2017-01-19T04:19:25.535Z,59.6
2017-01-19T04:20:25.139Z,58.84
2017-01-19T04:21:25.198Z,58.94
2017-01-19T04:22:25.549Z,58.84
2017-01-19T04:23:25.161Z,59.22
2017-01-19T04:24:25.170Z,60.08
2017-01-19T04:25:25.579Z,59.79
2017-01-19T04:26:25.637Z,60.08
2017-01-19T04:27:25.595Z,58.94
2017-01-19T04:28:25.627Z,59.6
2017-01-19T04:29:25.210Z,59.98
2017-01-19T04:30:25.621Z,60.08
2017-01-19T04:31:25.278Z,60.27
2017-01-19T04:32:25.239Z,59.89
2017-01-19T04:33:25.644Z,59.98
2017-01-19T04:34:25.252Z,59.89
2017-01-19T04:35:25.660Z,59.6
2017-01-19T04:36:25.719Z,59.89
2017-01-19T04:37:25.275Z,59.79
2017-01-19T04:38:25.688Z,59.79
2017-01-19T04:39:25.291Z,60.17
2017-01-19T04:40:25.301Z,60.08
2017-01-19T04:41:25.707Z,59.7
2017-01-19T04:42:25.368Z,59.6
2017-01-19T04:43:25.326Z,60.08
2017-01-19T04:44:25.334Z,59.6
2017-01-19T04:45:25.740Z,59.6
2017-01-19T04:46:25.747Z,59.79
2017-01-19T04:47:25.804Z,59.89
2017-01-19T04:48:25.365Z,59.98
2017-01-19T04:49:25.773Z,60.55
2017-01-19T04:50:25.383Z,60.36
2017-01-19T04:51:25.792Z,60.64
2017-01-19T04:52:25.398Z,61.02
2017-01-19T04:53:25.810Z,60.36
2017-01-19T04:54:25.815Z,60.08
2017-01-19T04:55:25.424Z,60.27
2017-01-19T04:56:25.828Z,60.99
2017-01-19T04:57:25.440Z,60.93
2017-01-19T04:58:25.843Z,60.93
2017-01-19T04:59:25.456Z,61.21
2017-01-19T05:00:25.871Z,61.49
2017-01-19T05:01:25.869Z,61.74
2017-01-19T05:02:25.877Z,61.68
2017-01-19T05:03:25.485Z,61.11
2017-01-19T05:04:25.917Z,61.02
2017-01-19T05:05:25.901Z,61.02
2017-01-19T05:06:25.927Z,60.83
2017-01-19T05:07:25.517Z,61.21
2017-01-19T05:08:25.524Z,61.3
2017-01-19T05:09:25.932Z,60.93
2017-01-19T05:10:25.936Z,61.46
2017-01-19T05:11:25.947Z,61.4
2017-01-19T05:12:25.554Z,61.02
2017-01-19T05:13:25.567Z,61.02
2017-01-19T05:14:25.572Z,60.83
2017-01-19T05:15:25.587Z,60.93
2017-01-19T05:16:25.588Z,60.83
2017-01-19T05:17:25.991Z,61.21
2017-01-19T05:18:25.601Z,61.3
2017-01-19T05:19:25.607Z,61.21
2017-01-19T05:20:26.018Z,61.58
2017-01-19T05:21:26.035Z,60.64
2017-01-19T05:22:26.032Z,61.02
2017-01-19T05:23:25.638Z,60.93
2017-01-19T05:24:25.647Z,60.64
2017-01-19T05:25:25.653Z,61.02
2017-01-19T05:26:26.065Z,61.11
2017-01-19T05:27:25.670Z,60.64
2017-01-19T05:28:26.076Z,61.21
2017-01-19T05:29:26.085Z,61.77
2017-01-19T05:30:26.090Z,61.87
2017-01-19T05:31:26.102Z,61.58
2017-01-19T05:32:26.105Z,61.49
2017-01-19T05:33:25.718Z,60.93
2017-01-19T05:34:25.722Z,60.93
2017-01-19T05:35:25.730Z,60.08
2017-01-19T05:36:26.139Z,60.17
2017-01-19T05:37:26.147Z,60.27
2017-01-19T05:38:26.156Z,61.02
2017-01-19T05:39:25.762Z,60.17
2017-01-19T05:40:26.170Z,59.98
2017-01-19T05:41:26.176Z,59.79
2017-01-19T05:42:26.185Z,60.36
2017-01-19T05:43:25.795Z,60.64
2017-01-19T05:44:26.201Z,60.55
2017-01-19T05:45:26.211Z,60.55
2017-01-19T05:46:26.219Z,60.93
2017-01-19T05:47:26.228Z,60.46
2017-01-19T05:48:25.834Z,60.27
2017-01-19T05:49:26.246Z,60.17
2017-01-19T05:50:26.253Z,60.27
2017-01-19T05:51:25.861Z,60.74
2017-01-19T05:52:25.870Z,60.93
2017-01-19T05:53:25.875Z,61.02
2017-01-19T05:54:26.283Z,60.83
2017-01-19T05:55:26.293Z,60.36
2017-01-19T05:56:26.302Z,60.08
2017-01-19T05:57:26.310Z,61.21
2017-01-19T05:58:25.919Z,61.21
2017-01-19T05:59:25.925Z,61.02
2017-01-19T06:00:26.334Z,60.74
2017-01-19T06:01:25.991Z,61.02
2017-01-19T06:02:25.951Z,61.21
2017-01-19T06:03:25.960Z,60.93
2017-01-19T06:04:26.363Z,61.02
2017-01-19T06:05:26.376Z,60.93
2017-01-19T06:06:26.034Z,60.89
2017-01-19T06:07:25.990Z,61.02
2017-01-19T06:08:26.396Z,61.49
2017-01-19T06:09:26.405Z,61.4
2017-01-19T06:10:26.410Z,61.49
2017-01-19T06:11:26.021Z,61.77
2017-01-19T06:12:26.428Z,61.58
2017-01-19T06:13:26.438Z,61.58
2017-01-19T06:14:26.045Z,60.93
2017-01-19T06:15:26.452Z,61.11
2017-01-19T06:16:26.065Z,61.46
2017-01-19T06:17:26.468Z,61.4
2017-01-19T06:18:26.477Z,61.49
2017-01-19T06:19:26.486Z,61.4
2017-01-19T06:20:26.493Z,60.74
2017-01-19T06:21:26.101Z,61.21
2017-01-19T06:22:26.110Z,61.02
2017-01-19T06:23:26.516Z,61.02
2017-01-19T06:24:26.523Z,61.21
2017-01-19T06:25:26.532Z,61.21
2017-01-19T06:26:26.140Z,60.55
2017-01-19T06:27:26.150Z,60.36
2017-01-19T06:28:26.558Z,59.7
2017-01-19T06:29:26.165Z,60.74
2017-01-19T06:30:26.574Z,60.55
2017-01-19T06:31:26.182Z,60.83
2017-01-19T06:32:26.589Z,60.93
2017-01-19T06:33:26.197Z,61.02
2017-01-19T06:34:26.206Z,61.02
2017-01-19T06:35:26.615Z,61.02
2017-01-19T06:36:26.621Z,61.21
2017-01-19T06:37:26.230Z,60.93
2017-01-19T06:38:26.235Z,61.02
2017-01-19T06:39:26.643Z,60.64
2017-01-19T06:40:26.648Z,61.46
2017-01-19T06:41:26.260Z,61.27
2017-01-19T06:42:26.666Z,61.46
2017-01-19T06:43:26.273Z,61.08
2017-01-19T06:44:26.683Z,61.18
2017-01-19T06:45:26.686Z,61.36
2017-01-19T06:46:26.295Z,61.11
2017-01-19T06:47:26.307Z,61.3
2017-01-19T06:48:26.315Z,61.36
2017-01-19T06:49:26.320Z,61.46
2017-01-19T06:50:26.328Z,61.3
2017-01-19T06:51:26.343Z,61.11
2017-01-19T06:52:26.739Z,61.4
2017-01-19T06:53:26.751Z,61.11
2017-01-19T06:54:26.759Z,60.55
2017-01-19T06:55:26.368Z,60.17
2017-01-19T06:56:26.374Z,60.46
2017-01-19T06:57:26.382Z,60.93
2017-01-19T06:58:26.392Z,61.02
2017-01-19T06:59:26.797Z,60.64
2017-01-19T07:00:26.801Z,61.11
2017-01-19T07:01:26.412Z,60.36
2017-01-19T07:02:26.820Z,59.98
2017-01-19T07:03:26.480Z,60.46
2017-01-19T07:04:26.435Z,60.55
2017-01-19T07:05:26.860Z,60.83
2017-01-19T07:06:26.849Z,61.02
2017-01-19T07:07:26.459Z,60.93
2017-01-19T07:08:26.911Z,60.93
2017-01-19T07:09:26.473Z,60.55
2017-01-19T07:10:26.882Z,60.74
2017-01-19T07:11:26.489Z,60.83
2017-01-19T07:12:26.898Z,61.21
2017-01-19T07:13:26.505Z,61.02
2017-01-19T07:14:26.511Z,60.83
2017-01-19T07:15:26.520Z,61.02
2017-01-19T07:16:26.579Z,61.36
2017-01-19T07:17:26.935Z,61.49
2017-01-19T07:18:26.944Z,61.46
2017-01-19T07:19:26.951Z,61.21
2017-01-19T07:20:26.959Z,60.8
2017-01-19T07:21:26.565Z,60.64
2017-01-19T07:22:26.574Z,61.55
2017-01-19T07:23:26.583Z,61.27
2017-01-19T07:24:26.993Z,61.58
2017-01-19T07:25:26.995Z,61.21
2017-01-19T07:26:26.602Z,60.93
2017-01-19T07:27:26.612Z,61.74
2017-01-19T07:28:26.620Z,61.46
2017-01-19T07:29:27.027Z,61.55
2017-01-19T07:30:27.235Z,61.84
2017-01-19T07:31:26.645Z,61.93
2017-01-19T07:32:26.684Z,62.21
2017-01-19T07:33:27.058Z,61.4
2017-01-19T07:34:27.064Z,61.87
2017-01-19T07:35:26.673Z,61.49
2017-01-19T07:36:26.681Z,61.11
2017-01-19T07:37:26.739Z,60.74
2017-01-19T07:38:27.094Z,60.36
2017-01-19T07:39:27.102Z,60.55
2017-01-19T07:40:27.141Z,60.36
2017-01-19T07:41:27.116Z,60.93
2017-01-19T07:42:27.123Z,61.68
2017-01-19T07:43:26.734Z,61.77
2017-01-19T07:44:27.139Z,61.49
2017-01-19T07:45:26.746Z,61.21
2017-01-19T07:46:27.153Z,61.02
2017-01-19T07:47:26.836Z,60.64
2017-01-19T07:48:27.169Z,60.36
2017-01-19T07:49:26.774Z,59.89
2017-01-19T07:50:26.785Z,60.52
2017-01-19T07:51:27.191Z,60.99
2017-01-19T07:52:26.799Z,61.36
2017-01-19T07:53:27.207Z,61.11
2017-01-19T07:54:27.215Z,60.83
2017-01-19T07:55:27.220Z,61.08
2017-01-19T07:56:27.230Z,61.11
2017-01-19T07:57:27.242Z,61.4
2017-01-19T07:58:27.244Z,60.83
2017-01-19T07:59:27.250Z,61.11
2017-01-19T08:00:27.366Z,61.11
2017-01-19T08:01:27.265Z,61.3
2017-01-19T08:02:26.876Z,61.11
2017-01-19T08:03:27.283Z,60.93
2017-01-19T08:04:27.296Z,61.02
2017-01-19T08:05:27.346Z,61.27
2017-01-19T08:06:27.305Z,61.02
2017-01-19T08:07:27.313Z,60.46
2017-01-19T08:08:27.324Z,60.14
2017-01-19T08:09:26.928Z,60.71
2017-01-19T08:10:27.382Z,61.55
2017-01-19T08:11:26.943Z,61.55
2017-01-19T08:12:26.955Z,61.46
2017-01-19T08:13:26.959Z,61.74
2017-01-19T08:14:26.978Z,62.4
2017-01-19T08:15:27.108Z,61.93
2017-01-19T08:16:26.980Z,61.93
2017-01-19T08:17:26.989Z,61.93
2017-01-19T08:18:27.396Z,61.65
2017-01-19T08:19:27.003Z,61.36
2017-01-19T08:20:27.011Z,61.93
2017-01-19T08:21:27.024Z,62.31
2017-01-19T08:22:27.033Z,62.25
2017-01-19T08:23:27.035Z,61.77
2017-01-19T08:24:27.042Z,61.84
2017-01-19T08:25:27.048Z,61.65
2017-01-19T08:26:27.454Z,61.46
2017-01-19T08:27:27.461Z,61.77
2017-01-19T08:28:27.484Z,61.46
2017-01-19T08:29:27.097Z,61.77
2017-01-19T08:30:27.087Z,61.68
2017-01-19T08:31:27.494Z,61.4
2017-01-19T08:32:27.500Z,61.58
2017-01-19T08:33:27.510Z,61.49
2017-01-19T08:34:27.120Z,61.46
2017-01-19T08:35:27.128Z,61.77
2017-01-19T08:36:27.531Z,61.4
2017-01-19T08:37:27.542Z,61.4
2017-01-19T08:38:27.156Z,61.49
2017-01-19T08:39:27.153Z,61.68
2017-01-19T08:40:27.169Z,61.68
2017-01-19T08:41:27.622Z,60.74
2017-01-19T08:42:27.577Z,60.74
2017-01-19T08:43:27.188Z,60.64
2017-01-19T08:44:27.595Z,60.74
2017-01-19T08:45:27.604Z,60.36
2017-01-19T08:46:27.260Z,60.08
2017-01-19T08:47:27.616Z,60.17
2017-01-19T08:48:27.225Z,60.33
2017-01-19T08:49:27.233Z,61.08
2017-01-19T08:50:27.643Z,61.08
2017-01-19T08:51:27.301Z,61.4
2017-01-19T08:52:27.657Z,61.02
2017-01-19T08:53:27.660Z,60.64
2017-01-19T08:54:27.669Z,60.93
2017-01-19T08:55:27.709Z,60.93
2017-01-19T08:56:27.687Z,61.11
2017-01-19T08:57:27.360Z,60.55
2017-01-19T08:58:27.304Z,60.99
2017-01-19T08:59:27.712Z,60.8
2017-01-19T09:00:27.317Z,60.99
2017-01-19T09:01:27.326Z,61.02
2017-01-19T09:02:27.385Z,61.4
2017-01-19T09:03:27.746Z,61.02
2017-01-19T09:04:27.749Z,60.93
2017-01-19T09:05:27.356Z,60.83
2017-01-19T09:06:27.365Z,60.46
2017-01-19T09:07:27.422Z,60.64
2017-01-19T09:08:27.779Z,60.55
2017-01-19T09:09:27.390Z,60.27
2017-01-19T09:10:27.396Z,60.08
2017-01-19T09:11:27.405Z,60.64
2017-01-19T09:12:27.809Z,60.64
2017-01-19T09:13:27.416Z,61.02
2017-01-19T09:14:27.426Z,60.27
2017-01-19T09:15:27.433Z,59.41
2017-01-19T09:16:27.839Z,60.17
2017-01-19T09:17:27.844Z,59.22
2017-01-19T09:18:27.462Z,59.22
2017-01-19T09:19:27.464Z,59.6
2017-01-19T09:20:27.872Z,59.51
2017-01-19T09:21:27.878Z,58.47
2017-01-19T09:22:27.888Z,58.47
2017-01-19T09:23:27.547Z,58.84
2017-01-19T09:24:27.506Z,58.37
2017-01-19T09:25:27.913Z,58.18
2017-01-19T09:26:27.921Z,58.28
2017-01-19T09:27:27.527Z,58.09
2017-01-19T09:28:27.539Z,58.09
2017-01-19T09:29:27.747Z,58
2017-01-19T09:30:27.550Z,57.9
2017-01-19T09:31:27.560Z,57.55
2017-01-19T09:32:27.567Z,57.62
2017-01-19T09:33:27.575Z,58.56
2017-01-19T09:34:27.990Z,58.94
2017-01-19T09:35:27.593Z,59.03
2017-01-19T09:36:27.601Z,58.75
2017-01-19T09:37:27.607Z,58.65
2017-01-19T09:38:28.015Z,57.65
2017-01-19T09:39:27.624Z,57.62
2017-01-19T09:40:27.636Z,58.09
2017-01-19T09:41:28.057Z,58.65
2017-01-19T09:42:28.051Z,58.56
2017-01-19T09:43:28.056Z,58.94
2017-01-19T09:44:28.065Z,58.75
2017-01-19T09:45:27.675Z,58.94
2017-01-19T09:46:27.683Z,59.6
2017-01-19T09:47:28.090Z,59.89
2017-01-19T09:48:28.119Z,59.51
2017-01-19T09:49:28.105Z,59.51
2017-01-19T09:50:28.114Z,59.22
2017-01-19T09:51:27.728Z,58.18
2017-01-19T09:52:27.743Z,58.56
2017-01-19T09:53:28.139Z,58.65
2017-01-19T09:54:28.148Z,58.94
2017-01-19T09:55:27.757Z,58.65
2017-01-19T09:56:27.764Z,58.56
2017-01-19T09:57:28.172Z,58.56
2017-01-19T09:58:28.184Z,58.65
2017-01-19T09:59:27.791Z,58.65
2017-01-19T10:00:27.795Z,59.13
2017-01-19T10:01:27.803Z,59.13
2017-01-19T10:02:27.816Z,58.94
2017-01-19T10:03:28.225Z,58.65
2017-01-19T10:04:28.229Z,58.47
2017-01-19T10:05:27.843Z,58.84
2017-01-19T10:06:27.858Z,58.65
2017-01-19T10:07:28.257Z,58.56
2017-01-19T10:08:28.261Z,58.94
2017-01-19T10:09:28.315Z,59.03
2017-01-19T10:10:27.880Z,58.56
2017-01-19T10:11:28.287Z,57.81
2017-01-19T10:12:28.339Z,57.62
2017-01-19T10:13:28.307Z,58.22
2017-01-19T10:14:28.310Z,58.22
2017-01-19T10:15:27.922Z,58.22
2017-01-19T10:16:28.329Z,56.7
2017-01-19T10:17:27.937Z,55.38
2017-01-19T10:18:28.347Z,54.91
2017-01-19T10:19:28.372Z,55.76
2017-01-19T10:20:27.965Z,55.38
2017-01-19T10:21:27.972Z,56.39
2017-01-19T10:22:28.032Z,56.8
2017-01-19T10:23:27.991Z,57.55
2017-01-19T10:24:28.395Z,57.18
2017-01-19T10:25:28.006Z,56.51
2017-01-19T10:26:28.418Z,56.13
2017-01-19T10:27:28.073Z,56.23
2017-01-19T10:28:28.431Z,56.3
2017-01-19T10:29:28.040Z,56.61
2017-01-19T10:30:28.449Z,56.58
2017-01-19T10:31:28.059Z,57.71
2017-01-19T10:32:28.512Z,58.28
2017-01-19T10:33:28.471Z,57.71
2017-01-19T10:34:28.080Z,56.77
2017-01-19T10:35:28.492Z,56.67
2017-01-19T10:36:28.097Z,57.18
2017-01-19T10:37:28.578Z,56.51
2017-01-19T10:38:28.118Z,55.38
2017-01-19T10:39:28.125Z,55.76
2017-01-19T10:40:28.532Z,56.32
2017-01-19T10:41:28.541Z,55.19
2017-01-19T10:42:28.601Z,55.57
2017-01-19T10:43:28.158Z,55.38
2017-01-19T10:44:28.564Z,55.19
2017-01-19T10:45:28.176Z,55.19
2017-01-19T10:46:28.184Z,55.19
2017-01-19T10:47:28.590Z,54.72
2017-01-19T10:48:28.200Z,55.38
2017-01-19T10:49:28.211Z,55.47
2017-01-19T10:50:28.217Z,55.57
2017-01-19T10:51:28.225Z,55.29
2017-01-19T10:52:28.242Z,55
2017-01-19T10:53:28.709Z,54.62
2017-01-19T10:54:28.669Z,55.1
2017-01-19T10:55:28.670Z,54.53
2017-01-19T10:56:28.707Z,54.81
2017-01-19T10:57:28.754Z,54.72
2017-01-19T10:58:28.696Z,54.53
2017-01-19T10:59:28.704Z,54.62
2017-01-19T11:00:28.312Z,54.91
2017-01-19T11:01:28.712Z,55.47
2017-01-19T11:02:28.726Z,54.91
2017-01-19T11:03:28.338Z,54.15
2017-01-19T11:04:28.750Z,54.44
2017-01-19T11:05:28.766Z,54.91
2017-01-19T11:06:28.767Z,54.15
2017-01-19T11:07:28.401Z,53.77
2017-01-19T11:08:28.781Z,53.58
2017-01-19T11:09:28.893Z,53.87
2017-01-19T11:10:28.807Z,53.3
2017-01-19T11:11:28.416Z,53.3
2017-01-19T11:12:28.855Z,53.39
2017-01-19T11:13:28.843Z,53.49
2017-01-19T11:14:28.882Z,53.77
2017-01-19T11:15:28.466Z,54.53
2017-01-19T11:16:28.902Z,54.08
2017-01-19T11:17:28.495Z,53.61
2017-01-19T11:18:28.515Z,52.48
2017-01-19T11:19:28.994Z,52.67
2017-01-19T11:20:28.497Z,52
2017-01-19T11:21:28.903Z,51.91
2017-01-19T11:22:28.523Z,52.1
2017-01-19T11:23:28.551Z,51.62
2017-01-19T11:24:28.613Z,51.34
2017-01-19T11:25:28.586Z,51.06
2017-01-19T11:26:29.107Z,51.72
2017-01-19T11:27:28.619Z,51.72
2017-01-19T11:28:28.633Z,51.53
2017-01-19T11:29:28.588Z,52.67
2017-01-19T11:30:28.661Z,52.48
2017-01-19T11:31:29.118Z,52.67
2017-01-19T11:32:28.650Z,52.41
2017-01-19T11:33:29.060Z,50.99
2017-01-19T11:34:28.636Z,50.33
2017-01-19T11:35:28.664Z,50.33
2017-01-19T11:36:28.675Z,50.23
2017-01-19T11:37:28.751Z,49.19
2017-01-19T11:38:28.696Z,49.85
2017-01-19T11:39:28.711Z,48.72
2017-01-19T11:40:29.106Z,48.44
2017-01-19T11:41:28.727Z,49.1
2017-01-19T11:42:28.785Z,48.63
2017-01-19T11:43:28.767Z,48.44
2017-01-19T11:44:28.801Z,48.72
2017-01-19T11:45:29.213Z,49.01
2017-01-19T11:46:28.774Z,49.01
2017-01-19T11:47:29.204Z,48.91
2017-01-19T11:48:28.833Z,47.89
2017-01-19T11:49:28.806Z,48.44
2017-01-19T11:50:28.833Z,49.01
2017-01-19T11:51:28.827Z,49.88
2017-01-19T11:52:29.328Z,48.36
2017-01-19T11:53:28.838Z,48.74
2017-01-19T11:54:29.279Z,47.8
2017-01-19T11:55:29.292Z,47.61
2017-01-19T11:56:29.356Z,47.42
2017-01-19T11:57:29.283Z,47.7
2017-01-19T11:58:29.319Z,46.97
2017-01-19T11:59:28.921Z,45.83
2017-01-19T12:00:29.353Z,46.85
2017-01-19T12:01:29.398Z,45.74
2017-01-19T12:02:29.352Z,45.72
2017-01-19T12:03:29.354Z,46.37
2017-01-19T12:04:29.397Z,47.61
2017-01-19T12:05:28.989Z,45.45
2017-01-19T12:06:29.444Z,45.36
2017-01-19T12:07:29.379Z,45.74
2017-01-19T12:08:29.014Z,45.07
2017-01-19T12:09:29.011Z,44.6
2017-01-19T12:10:29.026Z,43.84
2017-01-19T12:11:29.045Z,44.03
2017-01-19T12:12:29.047Z,44.98
2017-01-19T12:13:29.497Z,45.93
2017-01-19T12:14:29.087Z,44.79
2017-01-19T12:15:29.106Z,44.98
2017-01-19T12:16:29.402Z,44.98
2017-01-19T12:17:29.107Z,44.6
2017-01-19T12:18:29.526Z,44.03
2017-01-19T12:19:29.541Z,43.84
2017-01-19T12:20:29.543Z,44.51
2017-01-19T12:21:29.228Z,44.03
2017-01-19T12:22:29.574Z,43.46
2017-01-19T12:23:29.589Z,44.32
2017-01-19T12:24:29.197Z,45.45
2017-01-19T12:25:29.692Z,45.17
2017-01-19T12:26:29.619Z,44.51
2017-01-19T12:27:29.221Z,43.46
2017-01-19T12:28:29.233Z,44.89
2017-01-19T12:29:29.660Z,45.26
2017-01-19T12:30:29.687Z,44.7
2017-01-19T12:31:29.273Z,43.94
2017-01-19T12:32:29.681Z,44.6
2017-01-19T12:33:29.752Z,43.46
2017-01-19T12:34:29.313Z,43.75
2017-01-19T12:35:29.748Z,44.32
2017-01-19T12:36:29.741Z,43.94
2017-01-19T12:37:29.427Z,43.37
2017-01-19T12:38:29.378Z,44.32
2017-01-19T12:39:29.794Z,44.13
2017-01-19T12:40:29.412Z,44.77
2017-01-19T12:41:29.412Z,45.05
2017-01-19T12:42:29.401Z,45.05
2017-01-19T12:43:29.818Z,45.43
2017-01-19T12:44:29.848Z,45.62
2017-01-19T12:45:29.469Z,45.34
2017-01-19T12:46:29.863Z,44.96
2017-01-19T12:47:29.892Z,45.05
2017-01-19T12:48:29.483Z,46.37
2017-01-19T12:49:29.894Z,46.19
2017-01-19T12:50:29.544Z,46.4
2017-01-19T12:51:29.945Z,45.45
2017-01-19T12:52:29.926Z,44.22
2017-01-19T12:53:29.988Z,44.77
2017-01-19T12:54:29.562Z,44.77
2017-01-19T12:55:29.964Z,44.86